< Cyclone 199506 1996 Season Cyclone 199602 >
Cyclone 199601 (DARYL)
General InformationTrack Information on Google MapsDetailed Wind InformationList of All Images || ResourceGoogle EarthGE AnimationAtom FeedGeoJSON
Detalied Best Track (Time Zone = UTC)
Year Month Day Hour Lat. Long. Pressure (hPa) Wind (kt) Class Image Chart
1995 11 16 01 -6.9 95.5 1004 21 2 Image --
1995 11 16 07 -7.4 96.5 1004 21 2 Image --
1995 11 16 13 -8.0 96.5 1002 23 2 Image --
1995 11 16 19 -8.5 96.5 1002 23 2 Image --
1995 11 17 01 -9.0 96.6 1002 23 2 Image --
1995 11 17 07 -9.5 96.6 1000 27 2 Image --
1995 11 17 13 -10.1 96.3 1000 27 2 Image --
1995 11 17 19 -10.5 95.9 998 29 2 Image --
1995 11 18 01 -10.9 95.4 995 35 3 Image --
1995 11 18 04 -11.0 95.0 995 35 3 Image --
1995 11 18 07 -11.1 94.7 990 41 3 Image --
1995 11 18 10 -11.2 94.3 990 41 3 Image --
1995 11 18 13 -11.3 93.9 985 47 3 Image --
1995 11 18 16 -11.3 93.4 985 47 3 Image --
1995 11 18 19 -11.3 92.9 985 47 3 Image --
1995 11 18 22 -11.3 92.3 980 54 4 Image --
1995 11 19 01 -11.3 91.8 980 54 4 Image --
1995 11 19 04 -11.3 91.2 975 60 4 Image --
1995 11 19 07 -11.3 90.6 970 66 5 Image --
1995 11 19 10 -11.3 90.0 965 70 5 Image --
1995 11 19 13 -11.3 89.4 960 76 5 Image --
1995 11 19 16 -11.3 88.9 955 80 5 Image --
1995 11 19 19 -11.3 88.4 950 84 5 Image --
1995 11 19 22 -11.3 87.9 940 93 5 Image --
1995 11 20 01 -11.3 87.4 930 101 5 Image --
1995 11 20 04 -11.3 87.0 925 105 5 Image --
1995 11 20 07 -11.5 86.7 920 107 5 Image --
1995 11 20 10 -11.6 86.4 920 107 5 Image --
1995 11 20 13 -11.7 86.1 915 111 5 Image --
1995 11 20 16 -11.9 85.8 915 111 5 Image --
1995 11 20 19 -12.0 85.5 915 111 5 Image --
1995 11 20 22 -12.2 85.3 920 107 5 Image --
1995 11 21 01 -12.5 85.0 920 107 5 Image --
1995 11 21 04 -12.6 84.7 920 107 5 Image --
1995 11 21 07 -12.8 84.6 925 105 5 Image --
1995 11 21 10 -13.1 84.5 925 105 5 Image --
1995 11 21 13 -13.2 84.2 930 101 5 Image --
1995 11 21 16 -13.4 84.0 930 101 5 Image --
1995 11 21 19 -13.5 83.8 935 97 5 Image --
1995 11 21 22 -13.7 83.7 935 97 5 Image --
1995 11 22 01 -14.0 83.6 940 93 5 Image --
1995 11 22 04 -14.3 83.5 940 93 5 Image --
1995 11 22 07 -14.6 83.3 940 93 5 Image --
1995 11 22 10 -14.9 83.1 940 93 5 Image --
1995 11 22 13 -15.2 82.9 940 93 5 Image --
1995 11 22 16 -15.4 82.8 940 93 5 Image --
1995 11 22 19 -15.7 82.8 940 93 5 Image --
1995 11 22 22 -15.9 82.8 945 89 5 Image --
1995 11 23 01 -16.1 82.8 950 84 5 Image --
1995 11 23 04 -16.3 82.7 955 80 5 Image --
1995 11 23 07 -16.6 82.6 960 76 5 Image --
1995 11 23 10 -16.8 82.7 960 76 5 Image --
1995 11 23 13 -16.9 82.8 965 70 5 Image --
1995 11 23 16 -16.9 82.3 965 70 5 Image --
1995 11 23 19 -16.9 81.9 970 66 5 Image --
1995 11 23 22 -16.9 81.5 975 60 4 Image --
1995 11 24 01 -16.9 81.0 980 54 4 Image --
1995 11 24 07 -16.9 80.0 985 47 3 Image --
1995 11 24 13 -16.9 79.2 995 35 3 Image --
1995 11 24 19 -16.9 78.3 1000 27 2 Image --
1995 11 25 01 -16.9 77.5 1004 21 2 Image --
< Cyclone 199506 1996 Season Cyclone 199602 >

Help